Latest Weather Observations for Maningrida Airport

IDD60801

Issued at 11:01 pm CST Monday 25 May 2015 (issued every 30 minutes, with the page automatically refreshed every 10 minutes)

About weather observations | Map of weather stations | Latest weather observations for NT | Other Formats
Station Details ID: 014405 Name: MANINGRIDA AIRPORT Lat: -12.06 Lon: 134.23 Height: 28.1 m
Data from the previous 72 hours. | See also: Recent months at Maningrida Airport
Date/Time
CST
Temp
°C
App
Temp
°C
Dew
Point
Rel
Hum
%
Delta-T
°C
Wind Press
QNH
hPa
Press
MSL
hPa
Rain
since 9 am
mm
Dir
 
Spd
km/h
Gust
km/h
Spd
kts
Gust
kts
25/11:00pm 27.3 27.8 20.9 68 4.2 SE 19 24 10 13 1016.4 1016.2 0.0
25/10:30pm 27.3 27.8 20.9 68 4.2 SE 19 26 10 14 1016.4 1016.2 0.0
25/10:00pm 27.6 28.0 20.9 67 4.4 SE 20 28 11 15 1016.4 1016.2 0.0
25/09:30pm 27.7 28.3 21.3 68 4.3 SE 20 32 11 17 1016.3 1016.1 0.0
25/09:00pm 27.7 29.0 21.7 70 4.0 ESE 17 24 9 13 1016.1 1015.9 0.0
25/08:30pm 27.1 28.8 22.3 75 3.2 ESE 17 28 9 15 1015.7 1015.5 0.0
25/08:00pm 28.2 29.8 21.5 67 4.5 ESE 15 20 8 11 1015.1 1014.9 0.0
25/07:30pm 27.8 31.2 22.7 74 3.5 E 9 13 5 7 1014.6 1014.4 0.0
25/07:00pm 27.6 31.7 23.2 77 3.0 ESE 7 9 4 5 1014.0 1013.8 0.0
25/06:30pm 27.8 31.4 23.0 75 3.3 E 9 11 5 6 1013.8 1013.6 0.0
25/06:00pm 28.8 32.5 22.5 68 4.3 ENE 7 9 4 5 1013.5 1013.3 0.0
25/05:30pm 29.1 32.7 22.3 66 4.6 E 7 9 4 5 1013.2 1013.0 0.0
25/05:00pm 29.4 32.6 22.4 66 4.8 ENE 9 11 5 6 1013.2 1013.0 0.0
25/04:30pm 29.5 32.7 21.7 63 5.2 E 7 9 4 5 1013.1 1012.9 0.0
25/04:00pm 29.2 32.1 21.7 64 5.0 ENE 9 11 5 6 1013.1 1012.9 0.0
25/03:30pm 30.4 32.4 21.5 59 6.0 ENE 13 17 7 9 1013.1 1012.9 0.0
25/03:00pm 31.7 32.9 20.0 50 7.7 E 13 20 7 11 1013.1 1012.9 0.0
25/02:30pm 31.9 32.3 19.8 48 8.0 E 17 24 9 13 1013.2 1013.0 0.0
25/02:00pm 32.2 32.8 19.5 47 8.4 E 15 22 8 12 1013.5 1013.3 0.0
25/01:30pm 32.1 33.4 19.4 47 8.3 ENE 11 19 6 10 1014.0 1013.8 0.0
25/01:00pm 31.9 33.1 19.8 48 8.0 NE 13 26 7 14 1014.5 1014.3 0.0
25/12:30pm 30.8 31.6 19.8 52 7.2 ESE 15 22 8 12 1014.8 1014.6 0.0
25/12:00pm 30.2 29.6 18.9 50 7.3 ESE 20 28 11 15 1015.1 1014.9 0.0
25/11:30am 30.9 31.4 19.3 50 7.6 E 15 24 8 13 1015.4 1015.2 0.0
25/11:00am 30.0 29.7 19.1 52 7.1 SE 19 26 10 14 1015.7 1015.5 0.0
25/10:30am 29.4 29.2 19.7 56 6.3 SE 20 28 11 15 1016.0 1015.8 0.0
25/10:00am 28.2 28.5 19.7 60 5.5 ESE 17 28 9 15 1016.2 1016.0 0.0
25/09:30am 27.3 28.0 19.6 62 5.0 SE 15 24 8 13 1016.4 1016.2 0.0
25/09:00am 26.0 26.1 19.2 66 4.4 SE 17 24 9 13 1016.5 1016.3 0.0
25/08:30am 24.9 24.4 19.0 69 3.8 SE 20 30 11 16 1016.5 1016.3 0.0
25/08:00am 23.8 23.4 18.9 74 3.1 SSE 19 24 10 13 1016.4 1016.2 0.0
25/07:30am 22.8 23.1 18.8 78 2.5 SSE 15 20 8 11 1016.1 1015.9 0.0
25/07:00am 21.9 22.8 18.5 81 2.1 S 11 13 6 7 1015.7 1015.5 0.0
25/06:30am 21.8 23.0 18.2 80 2.2 S 9 15 5 8 1015.6 1015.4 0.0
25/06:00am 22.1 22.6 18.3 79 2.4 S 13 17 7 9 1015.2 1015.0 0.0
25/05:30am 22.3 22.8 18.3 78 2.5 SSE 13 20 7 11 1015.1 1014.9 0.0
25/05:00am 22.5 22.8 17.8 75 2.9 SSE 13 19 7 10 1014.9 1014.7 0.0
25/04:30am 22.8 23.4 17.7 73 3.2 SSE 11 17 6 9 1014.9 1014.7 0.0
25/04:00am 23.2 23.5 17.9 72 3.3 SSE 13 17 7 9 1014.8 1014.6 0.0
25/03:30am 23.5 23.8 17.9 71 3.5 SE 13 19 7 10 1014.7 1014.5 0.0
25/03:00am 24.0 24.0 18.0 69 3.8 SE 15 20 8 11 1014.8 1014.6 0.0
25/02:30am 24.0 24.3 18.0 69 3.8 SSE 13 17 7 9 1015.2 1015.0 0.0
25/02:00am 24.2 24.5 17.9 68 3.9 SE 13 17 7 9 1015.3 1015.1 0.0
25/01:30am 24.3 24.8 17.5 66 4.2 SSE 11 15 6 8 1015.3 1015.1 0.0
25/01:00am 24.8 24.9 17.5 64 4.6 SE 13 17 7 9 1015.6 1015.4 0.0
25/12:30am 25.5 25.0 17.7 62 4.9 SE 17 22 9 12 1015.6 1015.4 0.0
25/12:00am 25.6 25.7 17.5 61 5.1 ESE 13 20 7 11 1015.7 1015.5 0.0
 
Date/Time
CST
Temp
°C
App
Temp
°C
Dew
Point
Rel
Hum
%
Delta-T
°C
Wind Press
QNH
hPa
Press
MSL
hPa
Rain
since 9 am
mm
Dir
 
Spd
km/h
Gust
km/h
Spd
kts
Gust
kts
24/11:30pm 25.8 25.4 17.2 59 5.4 ESE 15 19 8 10 1015.7 1015.5 0.0
24/11:00pm 26.1 25.6 16.9 57 5.7 ESE 15 20 8 11 1015.9 1015.7 0.0
24/10:30pm 26.5 25.8 16.4 53 6.2 ESE 15 22 8 12 1015.7 1015.5 0.0
24/10:00pm 26.9 25.7 16.2 52 6.6 ESE 17 24 9 13 1015.5 1015.3 0.0
24/09:30pm 27.2 26.4 16.2 51 6.8 ESE 15 19 8 10 1015.3 1015.1 0.0
24/09:00pm 27.3 26.7 16.6 52 6.6 ESE 15 19 8 10 1015.1 1014.9 0.0
24/08:30pm 27.2 28.3 17.9 56 5.9 ESE 9 15 5 8 1014.7 1014.5 0.0
24/08:00pm 27.1 29.7 20.4 66 4.4 ESE 7 7 4 4 1014.4 1014.2 0.0
24/07:30pm 27.3 30.1 20.4 66 4.5 ESE 6 7 3 4 1013.9 1013.7 0.0
24/07:00pm 27.2 29.8 20.0 64 4.7 E 6 7 3 4 1013.6 1013.4 0.0
24/06:30pm 27.5 29.3 19.6 62 5.1 NE 9 11 5 6 1013.3 1013.1 0.0
24/06:00pm 28.3 29.8 18.1 54 6.5 NE 7 11 4 6 1013.1 1012.9 0.0
24/05:30pm 29.6 29.9 17.1 47 7.9 ENE 11 15 6 8 1012.8 1012.6 0.0
24/05:00pm 30.9 30.5 15.3 38 9.6 E 11 15 6 8 1012.6 1012.4 0.0
24/04:30pm 31.3 29.9 14.4 35 10.3 ESE 15 20 8 11 1012.4 1012.2 0.0
24/04:00pm 31.2 29.8 14.4 36 10.2 SE 15 26 8 14 1012.3 1012.1 0.0
24/03:30pm 31.6 29.7 14.3 35 10.5 SE 17 28 9 15 1012.3 1012.1 0.0
24/03:00pm 31.9 30.5 14.5 34 10.6 SE 15 20 8 11 1012.2 1012.0 0.0
24/02:30pm 30.9 29.1 13.2 34 10.6 E 15 20 8 11 1012.4 1012.2 0.0
24/02:00pm 30.9 29.7 14.1 36 10.2 ESE 13 22 7 12 1012.5 1012.3 0.0
24/01:30pm 30.0 27.4 13.3 36 10.0 SE 19 28 10 15 1012.9 1012.7 0.0
24/01:00pm 30.3 28.2 13.6 36 10.0 SE 17 28 9 15 1013.4 1013.2 0.0
24/12:30pm 29.2 26.8 12.6 36 9.8 SSE 17 28 9 15 1013.8 1013.6 0.0
24/12:00pm 28.3 25.5 12.6 38 9.2 SE 19 28 10 15 1014.4 1014.2 0.0
24/11:30am 28.2 24.9 12.9 38 9.0 SE 22 30 12 16 1014.8 1014.6 0.0
24/11:00am 27.5 24.0 13.4 41 8.3 SSE 24 32 13 17 1015.2 1015.0 0.0
24/10:30am 26.8 23.6 14.2 46 7.5 SE 24 32 13 17 1015.5 1015.3 0.0
24/10:00am 25.2 22.1 14.6 51 6.3 SE 24 37 13 20 1015.5 1015.3 0.0
24/09:30am 24.4 22.0 14.5 54 5.9 SE 20 28 11 15 1015.8 1015.6 0.0
24/09:00am 23.8 21.6 14.5 56 5.5 SE 19 24 10 13 1015.8 1015.6 0.0
24/08:30am 22.3 20.2 14.7 62 4.5 SE 19 26 10 14 1015.7 1015.5 0.0
24/08:00am 20.8 19.3 15.4 71 3.2 SE 17 20 9 11 1015.6 1015.4 0.0
24/07:30am 19.5 18.7 16.0 80 2.1 SE 15 19 8 10 1015.5 1015.3 0.0
24/07:00am 18.5 18.1 16.3 87 1.3 SSE 13 19 7 10 1015.3 1015.1 0.0
24/06:30am 18.0 18.2 16.7 92 0.8 SSE 11 13 6 7 1014.8 1014.6 0.0
24/06:00am 18.0 18.6 16.7 92 0.8 S 9 11 5 6 1014.7 1014.5 0.0
24/05:30am 18.0 18.6 16.7 92 0.8 S 9 13 5 7 1014.5 1014.3 0.0
24/05:12am 17.9 18.3 16.4 91 0.9 S 9 11 5 6 1014.4 1014.2 0.0
24/05:00am 18.2 18.8 16.9 92 0.8 S 9 11 5 6 1014.4 1014.2 0.0
24/04:47am 18.2 18.8 16.7 91 0.9 S 9 11 5 6 1014.4 1014.2 0.0
24/04:38am 18.1 18.5 16.4 90 1.0 S 9 11 5 6 1014.3 1014.1 0.0
24/04:30am 18.5 19.5 16.8 90 1.0 SSE 7 9 4 5 1014.3 1014.1 0.0
24/04:02am 18.8 19.8 16.8 88 1.2 SSE 7 9 4 5 1014.4 1014.2 0.0
24/04:00am 18.9 19.9 16.9 88 1.2 SSE 7 11 4 6 1014.4 1014.2 0.0
24/03:30am 19.0 19.7 17.1 89 1.2 S 9 11 5 6 1014.5 1014.3 0.0
24/03:00am 19.4 20.7 17.0 86 1.5 SE 6 7 3 4 1014.6 1014.4 0.0
24/02:30am 20.0 21.1 17.0 83 1.8 SE 7 9 4 5 1014.5 1014.3 0.0
24/02:00am 20.9 21.6 17.1 79 2.3 SE 9 11 5 6 1014.7 1014.5 0.0
24/01:30am 21.6 22.1 17.4 77 2.6 ESE 11 15 6 8 1014.9 1014.7 0.0
24/01:00am 22.1 22.1 17.2 74 3.0 ESE 13 19 7 10 1015.1 1014.9 0.0
24/12:30am 22.6 21.9 17.3 72 3.3 SE 17 22 9 12 1015.2 1015.0 0.0
24/12:00am 23.0 21.9 17.2 70 3.6 SE 19 26 10 14 1015.4 1015.2 0.0
 
Date/Time
CST
Temp
°C
App
Temp
°C
Dew
Point
Rel
Hum
%
Delta-T
°C
Wind Press
QNH
hPa
Press
MSL
hPa
Rain
since 9 am
mm
Dir
 
Spd
km/h
Gust
km/h
Spd
kts
Gust
kts
23/11:30pm 23.3 22.0 17.3 69 3.7 SE 20 30 11 16 1015.4 1015.2 0.0
23/11:00pm 23.7 22.6 17.2 67 4.0 ESE 19 22 10 12 1015.2 1015.0 0.0
23/10:30pm 24.1 23.3 17.1 65 4.3 ESE 17 22 9 12 1015.1 1014.9 0.0
23/10:00pm 24.5 23.7 17.2 63 4.5 ESE 17 20 9 11 1014.9 1014.7 0.0
23/09:30pm 25.0 24.2 17.2 62 4.8 ESE 17 22 9 12 1014.8 1014.6 0.0
23/09:00pm 25.3 24.9 17.2 61 5.0 SE 15 22 8 12 1014.7 1014.5 0.0
23/08:30pm 25.8 25.4 17.2 59 5.4 ESE 15 20 8 11 1014.4 1014.2 0.0
23/08:00pm 26.1 25.7 17.2 58 5.6 ESE 15 19 8 10 1014.1 1013.9 0.0
23/07:30pm 26.5 26.5 17.3 57 5.8 ESE 13 15 7 8 1013.8 1013.6 0.0
23/07:00pm 27.0 27.4 17.2 55 6.1 ESE 11 15 6 8 1013.6 1013.4 0.0
23/06:30pm 27.5 28.3 17.4 54 6.4 ESE 9 11 5 6 1013.3 1013.1 0.0
23/06:00pm 28.5 28.8 17.1 50 7.2 ESE 11 13 6 7 1012.9 1012.7 0.0
23/05:30pm 29.5 29.7 16.7 46 8.0 E 11 15 6 8 1012.5 1012.3 0.0
23/05:00pm 30.4 29.6 16.0 41 9.0 ESE 15 22 8 12 1012.2 1012.0 0.0
23/04:30pm 31.1 30.1 15.5 39 9.7 ESE 15 22 8 12 1012.1 1011.9 0.0
23/04:00pm 31.4 29.9 15.4 38 9.9 SE 17 24 9 13 1011.9 1011.7 0.0
23/03:30pm 31.1 29.9 15.1 38 9.9 ESE 15 22 8 12 1012.1 1011.9 0.0
23/03:00pm 31.0 29.3 14.6 37 10.0 SE 17 26 9 14 1012.3 1012.1 0.0
23/02:30pm 31.4 29.9 15.4 38 9.9 SE 17 26 9 14 1012.6 1012.4 0.0
23/02:00pm 31.3 29.2 15.3 38 9.9 SE 20 30 11 16 1013.1 1012.9 0.0
23/01:30pm 31.0 29.2 15.4 38 9.6 ESE 19 28 10 15 1013.7 1013.5 0.0
23/01:00pm 30.9 28.8 15.3 38 9.6 SSE 20 32 11 17 1014.1 1013.9 0.0
23/12:30pm 29.3 27.2 15.1 42 8.7 SSE 20 28 11 15 1014.4 1014.2 0.0
23/12:00pm 28.9 26.8 15.1 43 8.4 SSE 20 32 11 17 1014.9 1014.7 0.0
23/11:30am 28.3 25.6 15.6 46 7.8 SSE 24 32 13 17 1015.3 1015.1 0.0
23/11:00am 28.3 25.7 15.9 47 7.6 SE 24 33 13 18 1015.8 1015.6 0.0
23/10:30am 27.2 25.5 16.2 51 6.8 SSE 20 35 11 19 1016.2 1016.0 0.0
23/10:00am 26.7 23.6 15.7 51 6.7 SE 26 37 14 20 1016.4 1016.2 0.0
23/09:37am 26.0 22.8 16.3 55 6.0 SSE 28 46 15 25 1016.4 1016.2 0.0
23/09:30am 26.2 23.4 16.4 54 6.0 SSE 26 43 14 23 1016.4 1016.2 0.0
23/09:00am 25.1 22.3 16.3 58 5.4 SE 26 35 14 19 1016.2 1016.0 0.0
23/08:30am 24.0 22.3 17.3 66 4.2 SSE 22 35 12 19 1016.0 1015.8 0.0
23/08:00am 22.9 21.7 17.4 71 3.4 SSE 20 30 11 16 1015.8 1015.6 0.0
23/07:30am 22.2 21.7 17.8 76 2.7 SSE 17 26 9 14 1015.6 1015.4 0.0
23/07:00am 21.3 20.7 17.5 79 2.3 SSE 17 24 9 13 1015.4 1015.2 0.0
23/06:30am 21.2 20.1 17.2 78 2.4 SSE 19 24 10 13 1015.2 1015.0 0.0
23/06:00am 21.0 20.3 17.4 80 2.2 SSE 17 24 9 13 1015.1 1014.9 0.0
23/05:30am 20.6 20.3 17.4 82 2.0 SSE 15 22 8 12 1015.0 1014.8 0.0
23/05:00am 20.7 20.0 17.3 81 2.1 SSE 17 24 9 13 1014.6 1014.4 0.0
23/04:30am 20.6 20.8 17.6 83 1.8 SSE 13 19 7 10 1014.6 1014.4 0.0
23/04:00am 20.3 21.3 17.7 85 1.6 S 9 13 5 7 1014.6 1014.4 0.0
23/03:30am 20.0 21.5 18.0 88 1.2 SSE 7 11 4 6 1014.6 1014.4 0.0
23/03:00am 20.2 21.8 17.8 86 1.5 S 6 7 3 4 1014.7 1014.5 0.0
23/02:30am 21.1 22.6 18.1 83 1.9 S 7 11 4 6 1014.8 1014.6 0.0
23/02:00am 21.5 22.9 17.9 80 2.2 S 7 11 4 6 1015.0 1014.8 0.0
23/01:30am 22.5 23.6 18.1 76 2.7 SE 9 13 5 7 1015.1 1014.9 0.0
23/01:00am 22.8 23.2 18.1 75 2.9 SE 13 17 7 9 1015.2 1015.0 0.0
23/12:30am 23.1 23.5 18.2 74 3.1 SE 13 15 7 8 1015.7 1015.5 0.0
23/12:00am 23.8 24.3 18.4 72 3.4 ESE 13 17 7 9 1016.0 1015.8 0.0
 
Date/Time
CST
Temp
°C
App
Temp
°C
Dew
Point
Rel
Hum
%
Delta-T
°C
Wind Press
QNH
hPa
Press
MSL
hPa
Rain
since 9 am
mm
Dir
 
Spd
km/h
Gust
km/h
Spd
kts
Gust
kts
22/11:30pm 23.8 24.2 18.2 71 3.5 SE 13 17 7 9 1016.4 1016.2 0.0

Other Formats:

Comma delimited format used in spreadsheet applications
http://www.bom.gov.au/fwo/IDD60801/IDD60801.95142.axf

JavaScript Object Notation format (JSON) in row-major order
http://www.bom.gov.au/fwo/IDD60801/IDD60801.95142.json